Time;durP1;ratioP1;P1;durP2;ratioP2;P2;SDS_P1;SDS_P2;PMS_P1;PMS_P2;Temp;Humidity;BMP_temperature;BMP_pressure;BME280_temperature;BME280_humidity;BME280_pressure;Samples;Min_cycle;Max_cycle;Signal;HPM_P1;HPM_P2
2022/03/19 00:02:20;;;;;;;3.25;2.45;;;;;;;;;;4986259;28;20190;-85
2022/03/19 00:04:46;;;;;;;2.67;2.17;;;;;;;;;;4984028;28;20187;-86
2022/03/19 00:07:12;;;;;;;3.33;2.25;;;;;;;;;;4985313;28;20673;-87
2022/03/19 00:09:39;;;;;;;3.03;2.20;;;;;;;;;;4982679;28;20236;-86
2022/03/19 00:12:05;;;;;;;3.38;1.90;;;;;;;;;;4982261;28;20219;-86
2022/03/19 00:14:31;;;;;;;4.10;1.88;;;;;;;;;;4984077;28;20613;-89
2022/03/19 00:16:57;;;;;;;2.78;2.00;;;;;;;;;;4984620;28;20176;-84
2022/03/19 00:19:23;;;;;;;3.38;2.20;;;;;;;;;;4984935;28;20200;-86
2022/03/19 00:21:50;;;;;;;3.75;1.83;;;;;;;;;;5000462;28;20206;-88
2022/03/19 00:24:16;;;;;;;2.42;2.20;;;;;;;;;;4985572;28;20183;-90
2022/03/19 00:26:42;;;;;;;4.10;1.85;;;;;;;;;;4984227;28;20537;-87
2022/03/19 00:29:08;;;;;;;2.78;1.70;;;;;;;;;;4984315;28;20187;-86
2022/03/19 00:31:35;;;;;;;2.42;2.08;;;;;;;;;;4982687;28;20204;-88
2022/03/19 00:34:01;;;;;;;2.00;1.90;;;;;;;;;;4997367;28;20457;-87
2022/03/19 00:36:27;;;;;;;5.40;2.00;;;;;;;;;;4973775;28;20340;-85
2022/03/19 00:38:54;;;;;;;3.22;2.28;;;;;;;;;;4975865;28;20184;-88
2022/03/19 00:41:20;;;;;;;3.20;2.20;;;;;;;;;;4984399;28;20282;-89
2022/03/19 00:43:46;;;;;;;3.08;2.25;;;;;;;;;;4984770;28;20188;-88
2022/03/19 00:46:13;;;;;;;2.53;1.52;;;;;;;;;;4985041;28;20179;-88
2022/03/19 00:48:40;;;;;;;3.42;1.95;;;;;;;;;;4983136;28;20279;-89
2022/03/19 00:51:06;;;;;;;3.95;2.10;;;;;;;;;;4981094;28;20220;-89
2022/03/19 00:53:32;;;;;;;2.80;1.65;;;;;;;;;;4988079;28;20179;-91
2022/03/19 00:55:58;;;;;;;3.07;2.27;;;;;;;;;;4985204;28;20555;-85
2022/03/19 00:58:24;;;;;;;2.80;2.08;;;;;;;;;;4983806;28;20439;-88
2022/03/19 01:00:50;;;;;;;3.37;1.97;;;;;;;;;;4980302;28;20200;-87
2022/03/19 01:03:16;;;;;;;3.97;2.70;;;;;;;;;;4978561;28;20443;-88
2022/03/19 01:05:42;;;;;;;2.17;1.83;;;;;;;;;;4983468;28;20438;-85
2022/03/19 01:08:08;;;;;;;3.05;2.08;;;;;;;;;;4983208;28;20191;-86
2022/03/19 01:10:35;;;;;;;2.60;2.00;;;;;;;;;;4981032;28;20238;-85
2022/03/19 01:13:03;;;;;;;1.75;1.58;;;;;;;;;;4984004;28;20252;-86
2022/03/19 01:15:29;;;;;;;2.15;1.95;;;;;;;;;;4984303;28;20180;-87
2022/03/19 01:17:55;;;;;;;2.83;2.00;;;;;;;;;;4984799;28;20188;-88
2022/03/19 01:20:21;;;;;;;2.63;2.13;;;;;;;;;;4983989;28;20180;-88
2022/03/19 01:22:47;;;;;;;2.13;1.90;;;;;;;;;;4985260;28;20258;-87
2022/03/19 01:25:14;;;;;;;3.17;1.70;;;;;;;;;;4985169;28;20643;-88
2022/03/19 01:27:40;;;;;;;3.63;1.75;;;;;;;;;;4980543;28;20291;-87
2022/03/19 01:30:07;;;;;;;5.55;2.10;;;;;;;;;;4988736;28;20200;-86
2022/03/19 01:32:35;;;;;;;2.78;1.52;;;;;;;;;;4977871;28;20179;-88
2022/03/19 01:35:01;;;;;;;1.38;1.27;;;;;;;;;;4999108;28;20222;-84
2022/03/19 01:37:27;;;;;;;1.95;1.45;;;;;;;;;;4985548;28;20175;-89
2022/03/19 01:39:55;;;;;;;3.35;1.42;;;;;;;;;;4979547;28;20188;-87
2022/03/19 01:42:25;;;;;;;3.42;1.77;;;;;;;;;;4988434;28;20662;-85
2022/03/19 01:44:51;;;;;;;4.80;1.80;;;;;;;;;;4973990;28;20187;-87
2022/03/19 01:47:17;;;;;;;2.92;2.00;;;;;;;;;;4983992;28;20190;-90
2022/03/19 01:49:43;;;;;;;2.08;1.23;;;;;;;;;;4997092;28;20199;-85
2022/03/19 01:52:09;;;;;;;3.00;1.50;;;;;;;;;;4985538;28;20632;-86
2022/03/19 01:54:37;;;;;;;1.77;1.23;;;;;;;;;;4984408;28;20438;-87
2022/03/19 01:57:03;;;;;;;2.80;1.92;;;;;;;;;;4983787;28;20511;-87
2022/03/19 01:59:31;;;;;;;1.70;1.40;;;;;;;;;;4984474;28;20188;-86
2022/03/19 02:01:58;;;;;;;2.38;2.03;;;;;;;;;;4984342;28;20182;-87
2022/03/19 02:04:24;;;;;;;3.85;2.97;;;;;;;;;;4985584;28;20175;-87
2022/03/19 02:06:51;;;;;;;3.72;3.30;;;;;;;;;;4985692;28;20247;-86
2022/03/19 02:09:17;;;;;;;6.30;4.65;;;;;;;;;;4985151;28;20180;-86
2022/03/19 02:11:44;;;;;;;5.70;4.40;;;;;;;;;;4984737;28;20273;-89
2022/03/19 02:14:10;;;;;;;6.22;4.60;;;;;;;;;;4982866;28;20661;-87
2022/03/19 02:16:36;;;;;;;4.25;3.85;;;;;;;;;;4986509;28;20164;-87
2022/03/19 02:19:02;;;;;;;3.80;2.75;;;;;;;;;;4981840;28;20185;-95
2022/03/19 02:21:38;;;;;;;3.47;3.13;;;;;;;;;;4984009;28;20725;-86
2022/03/19 02:26:49;;;;;;;3.55;1.63;;;;;;;;;;4982291;28;20242;-87
2022/03/19 02:29:15;;;;;;;1.80;1.70;;;;;;;;;;4985505;28;20692;-85
2022/03/19 02:31:44;;;;;;;2.42;1.48;;;;;;;;;;4988275;28;20426;-84
2022/03/19 02:34:10;;;;;;;2.50;1.50;;;;;;;;;;4988334;28;20179;-88
2022/03/19 02:36:40;;;;;;;4.25;2.15;;;;;;;;;;4988760;28;20243;-87
2022/03/19 02:39:16;;;;;;;2.13;1.80;;;;;;;;;;4987510;28;20183;-86
2022/03/19 02:41:52;;;;;;;2.35;2.10;;;;;;;;;;4987272;28;20222;-85
2022/03/19 02:44:18;;;;;;;2.95;2.03;;;;;;;;;;4986545;28;20194;-87
2022/03/19 02:46:49;;;;;;;2.25;1.45;;;;;;;;;;5000815;28;20176;-90
2022/03/19 02:49:15;;;;;;;3.03;1.90;;;;;;;;;;4987077;28;20179;-86
2022/03/19 02:51:42;;;;;;;2.55;1.95;;;;;;;;;;4986955;28;20192;-87
2022/03/19 02:54:10;;;;;;;2.53;1.50;;;;;;;;;;4983003;28;20192;-85
2022/03/19 02:56:37;;;;;;;3.08;2.00;;;;;;;;;;4976562;28;20191;-87
2022/03/19 02:59:09;;;;;;;2.72;1.92;;;;;;;;;;5002663;28;20172;-85
2022/03/19 03:01:35;;;;;;;4.47;2.75;;;;;;;;;;4987320;28;20180;-88
2022/03/19 03:04:02;;;;;;;3.40;1.88;;;;;;;;;;4988530;28;20187;-90
2022/03/19 03:06:28;;;;;;;3.30;2.15;;;;;;;;;;4981770;28;20188;-87
2022/03/19 03:08:54;;;;;;;3.13;1.98;;;;;;;;;;4977850;28;20184;-87
2022/03/19 03:11:20;;;;;;;3.95;3.05;;;;;;;;;;4987960;28;20230;-87
2022/03/19 03:13:46;;;;;;;7.88;3.00;;;;;;;;;;5000030;28;20180;-86
2022/03/19 03:16:13;;;;;;;5.90;2.65;;;;;;;;;;4982471;28;20292;-89
2022/03/19 03:18:39;;;;;;;2.38;2.13;;;;;;;;;;4995782;28;20208;-86
2022/03/19 03:21:05;;;;;;;3.97;2.80;;;;;;;;;;4978864;28;20234;-87
2022/03/19 03:23:34;;;;;;;5.03;2.95;;;;;;;;;;4985643;28;20215;-88
2022/03/19 03:26:00;;;;;;;4.57;2.42;;;;;;;;;;4987100;28;20199;-87
2022/03/19 03:28:27;;;;;;;4.75;3.13;;;;;;;;;;4987910;28;20187;-88
2022/03/19 03:30:53;;;;;;;4.90;2.72;;;;;;;;;;4987100;28;20207;-90
2022/03/19 03:33:19;;;;;;;3.75;2.70;;;;;;;;;;4998457;28;20199;-88
2022/03/19 03:35:45;;;;;;;4.43;3.05;;;;;;;;;;4975538;28;20247;-88
2022/03/19 03:38:11;;;;;;;5.37;3.00;;;;;;;;;;4982974;28;20188;-90
2022/03/19 03:40:37;;;;;;;3.53;2.50;;;;;;;;;;4983509;28;20422;-87
2022/03/19 03:43:03;;;;;;;4.28;3.00;;;;;;;;;;4986744;28;20192;-88
2022/03/19 03:45:30;;;;;;;3.85;2.75;;;;;;;;;;4986026;28;20184;-89
2022/03/19 03:47:56;;;;;;;3.50;2.70;;;;;;;;;;4986646;28;20219;-87
2022/03/19 03:50:22;;;;;;;3.70;2.92;;;;;;;;;;4985886;28;20199;-86
2022/03/19 03:52:48;;;;;;;6.35;3.63;;;;;;;;;;4986714;28;20184;-88
2022/03/19 03:55:14;;;;;;;6.47;3.88;;;;;;;;;;4987014;28;20188;-90
2022/03/19 03:57:41;;;;;;;3.90;3.05;;;;;;;;;;4984748;28;20218;-90
2022/03/19 04:00:10;;;;;;;8.68;1.92;;;;;;;;;;4981853;28;20212;-87
2022/03/19 04:02:37;;;;;;;6.22;3.28;;;;;;;;;;4989891;28;20180;-88
2022/03/19 04:05:04;;;;;;;4.93;3.90;;;;;;;;;;4983932;28;20188;-88
2022/03/19 04:07:30;;;;;;;5.30;3.60;;;;;;;;;;4987902;28;20176;-87
2022/03/19 04:09:56;;;;;;;5.32;3.28;;;;;;;;;;4981829;28;20211;-87
2022/03/19 04:12:22;;;;;;;7.10;4.10;;;;;;;;;;4989758;28;20227;-88
2022/03/19 04:14:49;;;;;;;6.60;4.30;;;;;;;;;;4976013;28;20184;-88
2022/03/19 04:17:15;;;;;;;6.05;4.35;;;;;;;;;;4984388;28;20200;-89
2022/03/19 04:19:41;;;;;;;5.22;3.30;;;;;;;;;;5009414;28;20203;-88
2022/03/19 04:22:07;;;;;;;6.93;4.07;;;;;;;;;;4986842;28;20183;-92
2022/03/19 04:24:34;;;;;;;6.45;4.38;;;;;;;;;;4986158;28;20187;-86
2022/03/19 04:27:00;;;;;;;7.35;4.70;;;;;;;;;;4985883;28;20203;-88
2022/03/19 04:29:26;;;;;;;5.22;3.80;;;;;;;;;;4984923;28;20188;-94
2022/03/19 04:31:52;;;;;;;9.88;5.10;;;;;;;;;;5000217;28;20203;-84
2022/03/19 04:34:18;;;;;;;7.20;4.35;;;;;;;;;;5001198;28;20184;-89
2022/03/19 04:36:45;;;;;;;7.35;4.25;;;;;;;;;;4985375;28;20196;-87
2022/03/19 04:39:11;;;;;;;7.95;4.97;;;;;;;;;;4981152;28;20184;-90
2022/03/19 04:41:37;;;;;;;6.07;4.05;;;;;;;;;;4974024;28;20191;-88
2022/03/19 04:44:04;;;;;;;7.75;5.30;;;;;;;;;;4999974;28;20187;-88
2022/03/19 04:46:30;;;;;;;9.07;6.22;;;;;;;;;;4985509;28;20204;-88
2022/03/19 04:48:56;;;;;;;6.00;4.93;;;;;;;;;;4985073;28;20192;-88
2022/03/19 04:51:25;;;;;;;9.05;6.00;;;;;;;;;;4980809;28;20208;-91
2022/03/19 04:53:51;;;;;;;9.65;6.72;;;;;;;;;;4990535;28;20254;-86
2022/03/19 04:56:17;;;;;;;9.85;5.03;;;;;;;;;;4985355;28;20184;-86
2022/03/19 04:58:43;;;;;;;8.25;5.38;;;;;;;;;;4983898;28;20168;-88
2022/03/19 05:01:09;;;;;;;10.43;6.65;;;;;;;;;;4984774;28;20298;-86
2022/03/19 05:03:35;;;;;;;8.43;5.45;;;;;;;;;;4984642;28;20183;-86
2022/03/19 05:06:02;;;;;;;9.57;6.75;;;;;;;;;;4983442;28;20252;-88
2022/03/19 05:08:28;;;;;;;9.77;6.18;;;;;;;;;;4985158;28;20180;-87
2022/03/19 05:11:12;;;;;;;10.20;6.55;;;;;;;;;;4984551;28;20506;-86
2022/03/19 05:13:38;;;;;;;12.13;6.47;;;;;;;;;;4985889;28;20215;-85
2022/03/19 05:16:04;;;;;;;7.45;5.95;;;;;;;;;;4985075;28;20520;-88
2022/03/19 05:18:30;;;;;;;11.63;6.85;;;;;;;;;;4980022;28;20204;-89
2022/03/19 05:20:56;;;;;;;8.85;6.32;;;;;;;;;;4992173;28;20192;-88
2022/03/19 05:23:23;;;;;;;9.25;6.75;;;;;;;;;;4999403;28;20251;-89
2022/03/19 05:25:49;;;;;;;8.88;6.00;;;;;;;;;;4984869;28;20184;-89
2022/03/19 05:28:15;;;;;;;11.40;7.07;;;;;;;;;;4985439;28;20183;-88
2022/03/19 05:30:41;;;;;;;11.02;7.05;;;;;;;;;;4984815;28;20262;-90
2022/03/19 05:33:07;;;;;;;12.85;7.50;;;;;;;;;;4982789;28;20214;-87
2022/03/19 05:35:33;;;;;;;13.57;7.97;;;;;;;;;;4984274;28;20385;-88
2022/03/19 05:38:00;;;;;;;13.70;7.88;;;;;;;;;;4998875;28;20184;-88
2022/03/19 05:40:26;;;;;;;10.63;7.65;;;;;;;;;;4985782;28;20239;-86
2022/03/19 05:42:52;;;;;;;9.75;5.15;;;;;;;;;;4979932;28;20184;-88
2022/03/19 05:45:20;;;;;;;12.20;7.60;;;;;;;;;;4977728;28;20259;-85
2022/03/19 05:47:46;;;;;;;16.77;8.85;;;;;;;;;;4984383;28;20443;-86
2022/03/19 05:50:13;;;;;;;11.20;8.02;;;;;;;;;;4983513;28;20239;-89
2022/03/19 05:52:40;;;;;;;10.60;7.75;;;;;;;;;;4996499;28;20176;-84
2022/03/19 05:55:06;;;;;;;13.65;8.88;;;;;;;;;;4984990;28;20238;-90
2022/03/19 05:57:32;;;;;;;14.90;8.70;;;;;;;;;;4982487;28;20282;-91
2022/03/19 05:59:58;;;;;;;10.27;7.60;;;;;;;;;;4998943;28;20180;-90
2022/03/19 06:02:24;;;;;;;13.15;8.18;;;;;;;;;;4982268;28;20190;-86
2022/03/19 06:04:50;;;;;;;13.15;8.48;;;;;;;;;;4998099;28;20191;-89
2022/03/19 06:07:16;;;;;;;12.95;9.77;;;;;;;;;;4983669;28;20190;-88
2022/03/19 06:09:42;;;;;;;14.40;8.10;;;;;;;;;;4983981;28;20215;-89
2022/03/19 06:12:09;;;;;;;15.07;9.20;;;;;;;;;;4995697;28;20220;-88
2022/03/19 06:14:35;;;;;;;12.43;7.18;;;;;;;;;;4971149;28;20215;-91
2022/03/19 06:17:01;;;;;;;13.85;8.40;;;;;;;;;;4998032;28;20227;-89
2022/03/19 06:19:27;;;;;;;17.00;9.68;;;;;;;;;;4985421;28;20172;-90
2022/03/19 06:21:53;;;;;;;13.17;9.10;;;;;;;;;;4980026;28;20189;-86
2022/03/19 06:24:21;;;;;;;13.30;9.75;;;;;;;;;;4978014;28;20445;-87
2022/03/19 06:26:47;;;;;;;15.93;10.65;;;;;;;;;;4983765;28;20195;-88
2022/03/19 06:29:13;;;;;;;15.73;10.02;;;;;;;;;;4984135;28;20196;-88
2022/03/19 06:31:39;;;;;;;17.85;10.52;;;;;;;;;;4984399;28;20203;-87
2022/03/19 06:34:05;;;;;;;15.23;8.90;;;;;;;;;;4996424;28;20176;-90
2022/03/19 06:39:15;;;;;;;19.55;12.10;;;;;;;;;;4977202;28;20199;-91
2022/03/19 06:41:41;;;;;;;15.77;10.20;;;;;;;;;;4983685;28;20549;-91
2022/03/19 06:44:08;;;;;;;17.17;12.35;;;;;;;;;;4981957;28;20447;-90
2022/03/19 06:46:34;;;;;;;19.80;11.27;;;;;;;;;;4983167;28;20180;-92
2022/03/19 06:49:00;;;;;;;17.35;11.35;;;;;;;;;;4983207;28;20191;-87
2022/03/19 06:51:26;;;;;;;19.23;12.07;;;;;;;;;;4979207;28;20216;-88
2022/03/19 06:53:52;;;;;;;21.25;13.85;;;;;;;;;;4989422;28;20175;-88
2022/03/19 06:56:18;;;;;;;17.95;12.30;;;;;;;;;;4998947;28;20669;-91
2022/03/19 06:58:44;;;;;;;19.77;12.15;;;;;;;;;;4983386;28;20198;-87
2022/03/19 07:01:15;;;;;;;18.23;12.75;;;;;;;;;;4983939;28;20188;-88
2022/03/19 07:03:42;;;;;;;17.92;12.52;;;;;;;;;;4982635;28;20234;-86
2022/03/19 07:06:08;;;;;;;22.88;13.25;;;;;;;;;;4994660;28;20181;-90
2022/03/19 07:08:34;;;;;;;19.42;13.65;;;;;;;;;;4970601;28;20188;-88
2022/03/19 07:11:00;;;;;;;23.10;13.68;;;;;;;;;;4998545;28;20239;-84
2022/03/19 07:13:26;;;;;;;19.10;12.10;;;;;;;;;;4982993;28;20184;-88
2022/03/19 07:15:52;;;;;;;19.05;14.60;;;;;;;;;;4985981;28;20431;-86
2022/03/19 07:18:18;;;;;;;23.52;14.43;;;;;;;;;;4986860;28;20176;-91
2022/03/19 07:20:44;;;;;;;26.80;16.80;;;;;;;;;;4986884;28;20664;-87
2022/03/19 07:23:10;;;;;;;25.97;15.63;;;;;;;;;;4986967;28;20438;-90
2022/03/19 07:25:37;;;;;;;23.05;15.95;;;;;;;;;;4988598;28;20426;-87
2022/03/19 07:28:07;;;;;;;23.75;14.85;;;;;;;;;;4981581;28;20212;-90
2022/03/19 07:30:33;;;;;;;27.30;16.25;;;;;;;;;;4990914;28;20208;-86
2022/03/19 07:32:59;;;;;;;31.15;19.45;;;;;;;;;;4993439;28;20176;-88
2022/03/19 07:35:26;;;;;;;28.55;15.95;;;;;;;;;;4986808;28;20188;-84
2022/03/19 07:37:53;;;;;;;27.92;17.60;;;;;;;;;;4986321;28;20176;-89
2022/03/19 07:41:45;;;;;;;29.90;18.13;;;;;;;;;;4971619;28;20176;-89
2022/03/19 07:43:06;;;;;;;32.03;19.15;;;;;;;;;;4986756;28;20195;-91
2022/03/19 07:45:32;;;;;;;30.38;19.38;;;;;;;;;;4981735;28;20199;-88
2022/03/19 07:47:58;;;;;;;30.05;19.10;;;;;;;;;;4983341;28;20645;-87
2022/03/19 07:50:25;;;;;;;25.33;16.60;;;;;;;;;;4986083;28;20218;-85
2022/03/19 07:52:51;;;;;;;27.10;16.30;;;;;;;;;;4986700;28;20183;-90
2022/03/19 07:55:17;;;;;;;27.55;17.23;;;;;;;;;;4986098;28;20191;-85
2022/03/19 07:57:43;;;;;;;24.77;15.45;;;;;;;;;;4982189;28;20184;-86
2022/03/19 08:00:12;;;;;;;34.83;18.52;;;;;;;;;;4985960;28;20192;-89
2022/03/19 08:02:38;;;;;;;27.15;17.90;;;;;;;;;;5001896;28;20184;-86
2022/03/19 08:05:04;;;;;;;28.00;18.90;;;;;;;;;;5000705;28;20172;-93
2022/03/19 08:07:30;;;;;;;41.78;19.33;;;;;;;;;;4985462;28;20250;-90
2022/03/19 08:09:56;;;;;;;27.25;17.48;;;;;;;;;;4985010;28;20284;-86
2022/03/19 08:12:23;;;;;;;31.30;19.90;;;;;;;;;;4982994;28;20479;-85
2022/03/19 08:14:49;;;;;;;38.17;22.08;;;;;;;;;;4984189;28;20447;-92
2022/03/19 08:17:15;;;;;;;31.90;19.70;;;;;;;;;;4981890;28;20184;-86
2022/03/19 08:19:42;;;;;;;31.75;19.02;;;;;;;;;;4984741;28;20176;-88
2022/03/19 08:22:08;;;;;;;25.75;16.58;;;;;;;;;;4982395;28;20190;-89
2022/03/19 08:24:35;;;;;;;20.67;14.23;;;;;;;;;;4984765;28;20226;-89
2022/03/19 08:27:01;;;;;;;30.60;19.77;;;;;;;;;;4980953;28;20198;-87
2022/03/19 08:29:27;;;;;;;28.27;18.02;;;;;;;;;;4981416;28;20184;-88
2022/03/19 08:31:53;;;;;;;16.45;11.55;;;;;;;;;;4982493;28;20256;-89
2022/03/19 08:34:20;;;;;;;33.83;21.23;;;;;;;;;;4984554;28;20276;-91
2022/03/19 08:36:46;;;;;;;34.10;20.45;;;;;;;;;;4982325;28;20721;-87
2022/03/19 08:41:57;;;;;;;30.98;21.95;;;;;;;;;;4976195;28;20199;-87
2022/03/19 08:44:23;;;;;;;37.55;21.48;;;;;;;;;;4985301;28;20255;-87
2022/03/19 08:46:49;;;;;;;34.72;21.70;;;;;;;;;;4983355;28;20199;-90
2022/03/19 08:49:15;;;;;;;30.45;21.02;;;;;;;;;;4983913;28;20183;-87
2022/03/19 08:51:41;;;;;;;36.05;23.80;;;;;;;;;;4985150;28;20227;-89
2022/03/19 08:54:08;;;;;;;32.45;19.88;;;;;;;;;;4984741;28;20191;-86
2022/03/19 08:56:35;;;;;;;30.33;21.88;;;;;;;;;;5000325;28;20665;-91
2022/03/19 08:59:01;;;;;;;30.67;19.40;;;;;;;;;;4999618;28;20645;-87
2022/03/19 09:01:27;;;;;;;30.52;22.73;;;;;;;;;;4986294;28;20187;-92
2022/03/19 09:03:54;;;;;;;37.60;22.95;;;;;;;;;;4985570;28;20184;-91
2022/03/19 09:06:20;;;;;;;32.58;21.33;;;;;;;;;;4981071;28;20233;-89
2022/03/19 09:08:47;;;;;;;33.97;22.60;;;;;;;;;;4974290;28;20184;-90
2022/03/19 09:11:13;;;;;;;30.33;22.35;;;;;;;;;;4985049;28;20242;-87
2022/03/19 09:13:39;;;;;;;34.17;23.20;;;;;;;;;;4991646;28;20164;-88
2022/03/19 09:16:06;;;;;;;35.15;23.92;;;;;;;;;;4985197;28;20172;-91
2022/03/19 09:18:33;;;;;;;33.53;22.50;;;;;;;;;;4980308;28;20229;-85
2022/03/19 09:20:59;;;;;;;33.25;22.52;;;;;;;;;;4990394;28;20207;-89
2022/03/19 09:23:28;;;;;;;33.80;20.10;;;;;;;;;;4984931;28;20234;-85
2022/03/19 09:25:54;;;;;;;33.60;22.95;;;;;;;;;;4984393;28;20290;-86
2022/03/19 09:28:20;;;;;;;31.13;20.50;;;;;;;;;;4983768;28;20732;-86
2022/03/19 09:30:46;;;;;;;36.28;24.10;;;;;;;;;;4999392;28;20208;-86
2022/03/19 09:33:12;;;;;;;38.00;24.95;;;;;;;;;;4996405;28;20208;-84
2022/03/19 09:35:38;;;;;;;32.47;22.75;;;;;;;;;;4973833;28;20183;-85
2022/03/19 09:38:04;;;;;;;37.47;23.23;;;;;;;;;;4997803;28;20267;-88
2022/03/19 09:40:30;;;;;;;35.85;22.83;;;;;;;;;;4985567;28;20175;-89
2022/03/19 09:42:59;;;;;;;38.70;24.25;;;;;;;;;;4979740;28;20219;-87
2022/03/19 09:45:26;;;;;;;37.30;24.08;;;;;;;;;;4988566;28;20651;-90
2022/03/19 09:47:53;;;;;;;36.88;24.92;;;;;;;;;;4974323;28;20543;-90
2022/03/19 09:50:20;;;;;;;31.58;22.17;;;;;;;;;;4983916;28;20215;-88
2022/03/19 09:52:50;;;;;;;35.55;24.90;;;;;;;;;;4984046;28;20176;-87
2022/03/19 09:55:17;;;;;;;33.50;23.13;;;;;;;;;;4979233;28;20187;-87
2022/03/19 09:57:43;;;;;;;31.73;22.45;;;;;;;;;;4988461;28;20176;-91
2022/03/19 10:00:10;;;;;;;33.63;21.08;;;;;;;;;;4995165;28;20404;-94
2022/03/19 10:02:55;;;;;;;35.28;24.15;;;;;;;;;;4988077;28;20207;-95
2022/03/19 10:10:51;;;;;;;29.80;21.02;;;;;;;;;;4984550;28;20315;-86
2022/03/19 10:13:17;;;;;;;32.92;23.50;;;;;;;;;;4984093;28;20179;-87
2022/03/19 10:15:44;;;;;;;32.00;22.55;;;;;;;;;;4979545;28;20172;-91
2022/03/19 10:18:10;;;;;;;31.92;21.35;;;;;;;;;;4975985;28;20184;-85
2022/03/19 10:20:37;;;;;;;35.13;23.25;;;;;;;;;;4980656;28;20207;-85
2022/03/19 10:23:03;;;;;;;28.10;21.38;;;;;;;;;;4983822;28;20187;-89
2022/03/19 10:25:29;;;;;;;29.38;21.88;;;;;;;;;;4983793;28;20623;-88
2022/03/19 10:28:03;;;;;;;28.45;21.45;;;;;;;;;;4983707;28;20188;-85
2022/03/19 10:30:37;;;;;;;30.50;20.50;;;;;;;;;;4979765;28;20220;-85
2022/03/19 10:33:03;;;;;;;26.05;17.20;;;;;;;;;;4989996;28;20198;-86
2022/03/19 10:35:30;;;;;;;29.73;20.20;;;;;;;;;;4982768;28;20180;-85
2022/03/19 10:37:57;;;;;;;26.33;18.23;;;;;;;;;;4997729;28;20250;-90
2022/03/19 10:40:35;;;;;;;28.30;20.48;;;;;;;;;;4982964;28;20185;-87
2022/03/19 10:43:01;;;;;;;30.30;22.25;;;;;;;;;;4983277;28;20198;-89
2022/03/19 10:45:30;;;;;;;27.73;20.40;;;;;;;;;;4984082;28;20177;-87
2022/03/19 10:47:56;;;;;;;30.80;22.02;;;;;;;;;;4984407;28;20199;-86
2022/03/19 10:50:24;;;;;;;26.80;18.43;;;;;;;;;;4985695;28;20207;-89
2022/03/19 10:52:51;;;;;;;27.15;19.52;;;;;;;;;;4985770;28;20428;-84
2022/03/19 10:55:17;;;;;;;25.48;14.73;;;;;;;;;;4983780;28;20187;-88
2022/03/19 10:57:44;;;;;;;29.80;20.15;;;;;;;;;;4991942;28;20207;-91
2022/03/19 11:00:10;;;;;;;29.40;18.88;;;;;;;;;;4991397;28;20193;-89
2022/03/19 11:02:40;;;;;;;30.45;22.00;;;;;;;;;;4976415;28;20179;-87
2022/03/19 11:05:08;;;;;;;27.40;20.27;;;;;;;;;;4986403;28;20189;-87
2022/03/19 11:07:35;;;;;;;26.80;18.85;;;;;;;;;;4982940;28;20189;-92
2022/03/19 11:10:04;;;;;;;26.75;19.15;;;;;;;;;;4985545;28;20650;-86
2022/03/19 11:12:32;;;;;;;27.98;19.00;;;;;;;;;;4986605;28;20226;-89
2022/03/19 11:14:59;;;;;;;27.17;19.40;;;;;;;;;;4986321;28;20190;-83
2022/03/19 11:17:32;;;;;;;29.88;20.10;;;;;;;;;;4986931;28;20240;-83
2022/03/19 11:20:04;;;;;;;28.05;19.10;;;;;;;;;;5000838;28;20223;-85
2022/03/19 11:22:39;;;;;;;25.17;16.83;;;;;;;;;;4987149;28;20182;-86
2022/03/19 11:25:16;;;;;;;23.48;15.75;;;;;;;;;;4986829;28;20222;-81
2022/03/19 11:27:44;;;;;;;29.20;20.67;;;;;;;;;;4986922;28;20187;-86
2022/03/19 11:30:17;;;;;;;25.05;16.38;;;;;;;;;;4986338;28;20242;-87
2022/03/19 11:32:59;;;;;;;28.85;19.55;;;;;;;;;;4985466;28;20207;-84
2022/03/19 11:35:26;;;;;;;29.02;20.13;;;;;;;;;;4985943;28;20191;-84
2022/03/19 11:38:01;;;;;;;27.60;19.48;;;;;;;;;;5000422;28;20187;-84
2022/03/19 11:40:29;;;;;;;26.05;18.60;;;;;;;;;;4986279;28;20534;-83
2022/03/19 11:42:55;;;;;;;26.98;19.88;;;;;;;;;;4981920;28;20283;-85
2022/03/19 11:45:21;;;;;;;29.48;19.67;;;;;;;;;;4989894;28;20220;-87
2022/03/19 11:47:47;;;;;;;26.33;18.20;;;;;;;;;;4990997;28;20373;-85
2022/03/19 11:50:23;;;;;;;23.98;19.13;;;;;;;;;;4986088;28;20209;-89
2022/03/19 11:52:49;;;;;;;24.00;17.42;;;;;;;;;;4999754;28;20207;-83
2022/03/19 11:55:19;;;;;;;25.77;19.30;;;;;;;;;;4985749;28;20256;-84
2022/03/19 11:57:56;;;;;;;26.92;20.08;;;;;;;;;;4986258;28;20468;-86
2022/03/19 12:00:24;;;;;;;23.27;19.33;;;;;;;;;;4984637;28;20186;-84
2022/03/19 12:03:03;;;;;;;23.93;18.50;;;;;;;;;;4984782;28;20271;-83
2022/03/19 12:05:29;;;;;;;29.00;21.10;;;;;;;;;;4986496;28;20458;-86
2022/03/19 12:07:57;;;;;;;24.70;19.70;;;;;;;;;;4999999;28;20532;-84
2022/03/19 12:10:31;;;;;;;26.40;19.70;;;;;;;;;;4985206;28;20456;-83
2022/03/19 12:12:58;;;;;;;24.03;18.70;;;;;;;;;;4997560;28;20444;-85
2022/03/19 12:15:33;;;;;;;22.90;19.63;;;;;;;;;;4980304;28;20435;-87
2022/03/19 12:18:17;;;;;;;28.30;18.50;;;;;;;;;;4984516;28;20787;-84
2022/03/19 12:20:43;;;;;;;21.40;18.00;;;;;;;;;;4985989;28;20496;-85
2022/03/19 12:23:11;;;;;;;19.40;17.30;;;;;;;;;;4984848;28;20445;-86
2022/03/19 12:25:42;;;;;;;23.33;19.23;;;;;;;;;;4981745;28;20495;-85
2022/03/19 12:28:08;;;;;;;25.63;18.97;;;;;;;;;;4986655;28;20423;-85
2022/03/19 12:30:36;;;;;;;21.10;18.40;;;;;;;;;;4981217;28;20443;-88
2022/03/19 12:33:02;;;;;;;24.17;19.07;;;;;;;;;;4991947;28;20441;-81
2022/03/19 12:35:37;;;;;;;21.53;18.50;;;;;;;;;;4999745;28;20434;-84
2022/03/19 12:38:03;;;;;;;23.83;21.20;;;;;;;;;;4983340;28;20874;-84
2022/03/19 12:43:16;;;;;;;22.27;18.90;;;;;;;;;;4985302;28;20423;-82
2022/03/19 12:45:44;;;;;;;21.60;19.40;;;;;;;;;;4982397;28;20519;-86
2022/03/19 12:48:18;;;;;;;26.67;22.07;;;;;;;;;;4983820;28;20453;-83
2022/03/19 12:50:50;;;;;;;21.70;19.40;;;;;;;;;;4982771;28;20561;-86
2022/03/19 12:53:17;;;;;;;21.73;19.13;;;;;;;;;;4972454;28;20437;-84
2022/03/19 12:55:43;;;;;;;20.90;18.70;;;;;;;;;;5000107;28;20444;-85
2022/03/19 12:58:09;;;;;;;20.43;18.23;;;;;;;;;;4984465;28;20439;-83
2022/03/19 13:00:35;;;;;;;21.17;18.90;;;;;;;;;;4997521;28;20869;-87
2022/03/19 13:03:01;;;;;;;22.70;20.30;;;;;;;;;;4984590;28;20988;-83
2022/03/19 13:05:27;;;;;;;23.97;21.50;;;;;;;;;;4982236;28;20722;-84
2022/03/19 13:08:07;;;;;;;25.23;22.77;;;;;;;;;;4984450;28;20776;-83
2022/03/19 13:10:46;;;;;;;25.77;23.00;;;;;;;;;;4983417;28;20505;-84
2022/03/19 13:13:13;;;;;;;23.63;21.13;;;;;;;;;;4982979;28;20446;-87
2022/03/19 13:15:49;;;;;;;23.07;20.70;;;;;;;;;;4982660;28;20419;-86
2022/03/19 13:18:26;;;;;;;21.73;19.40;;;;;;;;;;4983859;28;20430;-87
2022/03/19 13:20:58;;;;;;;23.13;20.83;;;;;;;;;;4982935;28;20438;-87
2022/03/19 13:23:24;;;;;;;22.10;20.00;;;;;;;;;;4997845;28;20447;-87
2022/03/19 13:25:50;;;;;;;22.93;20.70;;;;;;;;;;4998750;28;20423;-84
2022/03/19 13:28:16;;;;;;;21.20;19.17;;;;;;;;;;4984345;28;20430;-87
2022/03/19 13:30:46;;;;;;;23.20;20.90;;;;;;;;;;4979185;28;20480;-84
2022/03/19 13:33:15;;;;;;;23.77;21.27;;;;;;;;;;4988234;28;20549;-85
2022/03/19 13:35:47;;;;;;;22.63;20.40;;;;;;;;;;4989483;28;20443;-85
2022/03/19 13:38:13;;;;;;;24.90;22.37;;;;;;;;;;4999376;28;20438;-88
2022/03/19 13:40:40;;;;;;;24.33;21.90;;;;;;;;;;4997716;28;20439;-86
2022/03/19 13:43:06;;;;;;;27.10;24.50;;;;;;;;;;4981134;28;20434;-90
2022/03/19 13:45:33;;;;;;;24.60;22.00;;;;;;;;;;4976939;28;20442;-86
2022/03/19 13:48:04;;;;;;;24.20;21.80;;;;;;;;;;4982390;28;20497;-88
2022/03/19 13:50:35;;;;;;;22.17;20.07;;;;;;;;;;4983859;28;20557;-87
2022/03/19 13:53:01;;;;;;;24.20;21.70;;;;;;;;;;4984882;28;20450;-85
2022/03/19 13:55:27;;;;;;;23.27;20.87;;;;;;;;;;4983551;28;20435;-90
2022/03/19 13:58:00;;;;;;;22.40;20.30;;;;;;;;;;4984088;28;20478;-91
2022/03/19 14:00:27;;;;;;;24.33;21.93;;;;;;;;;;4995221;28;20478;-90
2022/03/19 14:02:54;;;;;;;25.03;22.43;;;;;;;;;;4975109;28;20434;-85
2022/03/19 14:05:25;;;;;;;23.50;21.10;;;;;;;;;;4984016;28;20507;-84
2022/03/19 14:07:54;;;;;;;22.40;20.00;;;;;;;;;;4983613;28;20426;-84
2022/03/19 14:10:20;;;;;;;26.83;22.73;;;;;;;;;;4984387;28;20463;-87
2022/03/19 14:12:46;;;;;;;23.87;21.40;;;;;;;;;;4982474;28;20450;-89
2022/03/19 14:15:17;;;;;;;25.70;21.80;;;;;;;;;;4980006;28;20526;-83
2022/03/19 14:17:47;;;;;;;25.43;22.70;;;;;;;;;;4984166;28;20442;-82
2022/03/19 14:20:13;;;;;;;24.70;21.10;;;;;;;;;;4984528;28;20929;-82
2022/03/19 14:22:39;;;;;;;26.57;22.10;;;;;;;;;;4985658;28;20418;-84
2022/03/19 14:25:05;;;;;;;25.07;19.93;;;;;;;;;;4981965;28;21061;-86
2022/03/19 14:27:31;;;;;;;26.33;21.40;;;;;;;;;;4983386;28;20437;-82
2022/03/19 14:29:59;;;;;;;26.63;21.50;;;;;;;;;;4986062;28;20960;-85
2022/03/19 14:32:25;;;;;;;28.00;21.90;;;;;;;;;;4986289;28;20472;-86
2022/03/19 14:34:51;;;;;;;25.63;21.20;;;;;;;;;;4987859;28;20425;-85
2022/03/19 14:37:17;;;;;;;23.50;18.17;;;;;;;;;;4988441;28;20432;-85
2022/03/19 14:39:43;;;;;;;26.87;19.70;;;;;;;;;;4987392;28;20443;-84
2022/03/19 14:42:09;;;;;;;24.70;18.60;;;;;;;;;;4982252;28;20509;-84
2022/03/19 14:44:35;;;;;;;23.30;17.23;;;;;;;;;;4975270;28;20443;-83
2022/03/19 14:47:01;;;;;;;27.50;19.00;;;;;;;;;;4985417;28;20442;-89